createdAt,value
2023-04-15T00:05:02.997Z,0.68
2023-04-15T00:10:06.571Z,0.57
2023-04-15T00:15:10.413Z,0.55
2023-04-15T00:20:13.598Z,0.73
2023-04-15T00:25:16.972Z,0.32
2023-04-15T00:30:20.055Z,0.52
2023-04-15T00:35:24.467Z,0.35
2023-04-15T00:40:28.123Z,0.52
2023-04-15T00:45:31.155Z,0.70
2023-04-15T00:50:34.636Z,0.73
2023-04-15T00:55:38.319Z,0.85
2023-04-15T01:00:42.827Z,0.90
2023-04-15T01:05:47.060Z,0.95
2023-04-15T01:10:50.224Z,1.15
2023-04-15T01:15:54.124Z,0.77
2023-04-15T01:20:57.587Z,0.55
2023-04-15T01:26:00.679Z,0.77
2023-04-15T01:31:11.068Z,0.82
2023-04-15T01:36:18.359Z,0.73
2023-04-15T01:41:28.956Z,0.47
2023-04-15T01:46:32.564Z,0.82
2023-04-15T01:51:36.503Z,0.63
2023-04-15T01:56:40.054Z,0.82
2023-04-15T02:01:43.086Z,0.70
2023-04-15T02:06:46.625Z,0.50
2023-04-15T02:11:53.267Z,0.60
2023-04-15T02:16:56.759Z,0.90
2023-04-15T02:22:00.533Z,0.65
2023-04-15T02:27:03.982Z,0.63
2023-04-15T02:32:07.543Z,0.80
2023-04-15T02:37:15.314Z,0.40
2023-04-15T02:42:18.443Z,0.70
2023-04-15T02:47:21.644Z,0.75
2023-04-15T02:52:25.573Z,0.57
2023-04-15T02:57:29.802Z,0.95
2023-04-15T03:02:38.320Z,0.60
2023-04-15T03:07:41.579Z,0.68
2023-04-15T03:12:44.688Z,0.50
2023-04-15T03:17:52.468Z,0.60
2023-04-15T03:22:55.834Z,0.70
2023-04-15T03:28:01.718Z,0.60
2023-04-15T03:33:05.042Z,0.55
2023-04-15T03:38:08.612Z,0.80
2023-04-15T03:43:12.517Z,0.85
2023-04-15T03:48:18.122Z,0.90
2023-04-15T03:53:22.384Z,0.75
2023-04-15T03:58:26.120Z,0.40
2023-04-15T04:03:29.837Z,0.50
2023-04-15T04:08:33.495Z,0.80
2023-04-15T04:13:37.068Z,0.80
2023-04-15T04:18:40.557Z,1.85
2023-04-15T04:23:44.190Z,0.95
2023-04-15T04:28:47.860Z,0.82
2023-04-15T04:33:51.593Z,0.73
2023-04-15T04:38:55.363Z,0.80
2023-04-15T04:43:58.689Z,0.70
2023-04-15T04:49:02.553Z,0.73
2023-04-15T04:54:06.255Z,0.80
2023-04-15T04:59:10.403Z,1.00
2023-04-15T05:04:13.985Z,1.05
2023-04-15T05:09:17.916Z,0.68
2023-04-15T05:14:23.879Z,1.20
2023-04-15T05:19:27.427Z,0.82
2023-04-15T05:24:31.172Z,0.90
2023-04-15T05:29:35.933Z,0.82
2023-04-15T05:34:39.938Z,1.40
2023-04-15T05:39:43.461Z,0.80
2023-04-15T05:44:47.361Z,1.23
2023-04-15T05:49:51.215Z,0.98
2023-04-15T05:54:54.961Z,2.13
2023-04-15T05:59:58.295Z,3.15
2023-04-15T06:05:01.673Z,2.88
2023-04-15T06:10:06.173Z,2.40
2023-04-15T06:15:10.814Z,1.48
2023-04-15T06:20:14.534Z,1.40
2023-04-15T06:25:18.448Z,0.50
2023-04-15T06:30:23.971Z,1.15
2023-04-15T06:35:28.105Z,1.23
2023-04-15T06:40:32.199Z,1.30
2023-04-15T06:45:36.073Z,1.17
2023-04-15T06:50:40.017Z,1.30
2023-04-15T06:55:43.593Z,1.00
2023-04-15T07:00:48.230Z,1.00
2023-04-15T07:05:51.840Z,1.17
2023-04-15T07:10:55.450Z,1.80
2023-04-15T07:15:59.350Z,1.27
2023-04-15T07:21:03.036Z,1.88
2023-04-15T07:26:06.938Z,1.50
2023-04-15T07:31:10.142Z,1.33
2023-04-15T07:36:14.379Z,1.05
2023-04-15T07:41:18.206Z,0.88
2023-04-15T07:46:21.912Z,0.95
2023-04-15T07:51:25.971Z,0.88
2023-04-15T07:56:29.589Z,1.52
2023-04-15T08:01:33.954Z,1.00
2023-04-15T08:06:40.207Z,1.20
2023-04-15T08:11:43.892Z,1.30
2023-04-15T08:16:47.952Z,1.67
2023-04-15T08:21:52.543Z,1.17
2023-04-15T08:26:57.001Z,1.10
2023-04-15T08:32:02.040Z,1.05
2023-04-15T08:37:06.892Z,1.02
2023-04-15T08:42:18.822Z,2.05
2023-04-15T08:47:27.564Z,1.67
2023-04-15T08:52:32.533Z,1.23
2023-04-15T08:57:37.693Z,1.13
2023-04-15T09:02:41.914Z,1.52
2023-04-15T09:07:45.935Z,1.40
2023-04-15T09:12:49.024Z,1.20
2023-04-15T09:17:52.281Z,2.35
2023-04-15T09:22:55.937Z,1.40
2023-04-15T09:28:02.913Z,1.27
2023-04-15T09:33:08.735Z,2.25
2023-04-15T09:38:13.156Z,1.20
2023-04-15T09:43:17.910Z,1.50
2023-04-15T09:48:23.255Z,2.13
2023-04-15T09:53:28.107Z,1.20
2023-04-15T09:58:35.547Z,1.05
2023-04-15T10:03:42.782Z,1.48
2023-04-15T10:08:48.632Z,1.42
2023-04-15T10:13:52.256Z,1.00
2023-04-15T10:18:57.437Z,1.25
2023-04-15T10:24:04.494Z,1.52
2023-04-15T10:29:10.312Z,1.50
2023-04-15T10:34:16.071Z,1.55
2023-04-15T10:39:34.670Z,1.30
2023-04-15T10:44:39.808Z,1.70
2023-04-15T10:49:57.571Z,1.52
2023-04-15T10:55:26.337Z,1.48
2023-04-15T11:00:32.951Z,1.45
2023-04-15T11:05:42.375Z,1.55
2023-04-15T11:10:45.968Z,1.20
2023-04-15T11:15:50.719Z,1.63
2023-04-15T11:21:00.709Z,1.48
2023-04-15T11:26:09.899Z,2.58
2023-04-15T11:31:18.709Z,2.20
2023-04-15T11:36:22.447Z,2.20
2023-04-15T11:41:26.616Z,2.53
2023-04-15T11:46:34.341Z,2.03
2023-04-15T11:51:38.178Z,1.88
2023-04-15T11:56:41.769Z,1.40
2023-04-15T12:01:47.909Z,1.92
2023-04-15T12:06:51.660Z,1.90
2023-04-15T12:11:58.821Z,2.03
2023-04-15T12:17:05.829Z,2.10
2023-04-15T12:22:15.509Z,2.05
2023-04-15T12:27:19.230Z,1.60
2023-04-15T12:32:24.008Z,1.75
2023-04-15T12:37:28.207Z,2.00
2023-04-15T12:42:32.693Z,2.08
2023-04-15T12:47:37.230Z,2.63
2023-04-15T12:52:41.321Z,3.22
2023-04-15T12:57:45.678Z,3.80
2023-04-15T13:02:49.658Z,3.25
2023-04-15T13:07:53.501Z,4.30
2023-04-15T13:12:57.526Z,3.88
2023-04-15T13:18:02.100Z,3.05
2023-04-15T13:23:05.294Z,2.40
2023-04-15T13:28:09.448Z,2.35
2023-04-15T13:33:13.044Z,2.00
2023-04-15T13:38:16.310Z,1.88
2023-04-15T13:43:19.996Z,1.70
2023-04-15T13:48:24.273Z,2.30
2023-04-15T13:53:38.187Z,2.20
2023-04-15T13:58:43.173Z,1.95
2023-04-15T14:03:47.009Z,3.10
2023-04-15T14:08:50.181Z,1.55
2023-04-15T14:13:53.806Z,1.55
2023-04-15T14:18:58.474Z,2.08
2023-04-15T14:24:01.891Z,1.38
2023-04-15T14:29:06.091Z,1.30
2023-04-15T14:34:09.816Z,1.45
2023-04-15T14:39:14.975Z,1.13
2023-04-15T14:44:18.737Z,1.52
2023-04-15T14:49:23.183Z,1.00
2023-04-15T14:54:27.278Z,1.58
2023-04-15T14:59:31.071Z,1.35
2023-04-15T15:04:36.551Z,1.30
2023-04-15T15:09:39.994Z,1.20
2023-04-15T15:14:44.231Z,1.20
2023-04-15T15:19:47.372Z,1.38
2023-04-15T15:24:51.454Z,1.17
2023-04-15T15:29:54.630Z,1.17
2023-04-15T15:34:58.835Z,1.17
2023-04-15T15:40:05.134Z,1.33
2023-04-15T15:45:09.016Z,1.40
2023-04-15T15:50:14.884Z,2.35
2023-04-15T15:55:19.202Z,1.40
2023-04-15T16:00:23.802Z,1.20
2023-04-15T16:05:27.736Z,1.17
2023-04-15T16:10:31.795Z,1.10
2023-04-15T16:15:36.110Z,1.10
2023-04-15T16:20:39.917Z,1.25
2023-04-15T16:25:44.763Z,1.48
2023-04-15T16:30:48.063Z,1.67
2023-04-15T16:35:52.754Z,1.40
2023-04-15T16:41:00.758Z,2.03
2023-04-15T16:46:04.105Z,2.17
2023-04-15T16:51:07.810Z,1.70
2023-04-15T16:56:11.291Z,1.60
2023-04-15T17:01:15.714Z,2.63
2023-04-15T17:06:18.995Z,1.98
2023-04-15T17:11:22.560Z,1.65
2023-04-15T17:16:27.186Z,1.45
2023-04-15T17:21:32.054Z,1.00
2023-04-15T17:26:35.876Z,1.33
2023-04-15T17:31:39.890Z,1.25
2023-04-15T17:36:44.478Z,1.23
2023-04-15T17:41:48.753Z,1.67
2023-04-15T17:46:52.927Z,1.80
2023-04-15T17:51:56.624Z,1.33
2023-04-15T17:57:00.641Z,1.77
2023-04-15T18:02:04.558Z,1.50
2023-04-15T18:07:08.516Z,2.17
2023-04-15T18:12:12.354Z,1.45
2023-04-15T18:17:16.794Z,2.80
2023-04-15T18:22:21.386Z,2.35
2023-04-15T18:27:25.108Z,1.80
2023-04-15T18:32:31.924Z,1.95
2023-04-15T18:37:35.842Z,1.60
2023-04-15T18:42:39.427Z,2.20
2023-04-15T18:47:43.035Z,2.42
2023-04-15T18:52:46.563Z,1.88
2023-04-15T18:57:50.430Z,2.13
2023-04-15T19:02:55.105Z,1.58
2023-04-15T19:07:59.700Z,1.67
2023-04-15T19:13:04.610Z,1.75
2023-04-15T19:18:11.132Z,1.77
2023-04-15T19:23:15.915Z,1.30
2023-04-15T19:28:19.935Z,1.50
2023-04-15T19:33:23.427Z,1.63
2023-04-15T19:38:26.795Z,1.25
2023-04-15T19:43:33.318Z,1.00
2023-04-15T19:48:37.625Z,0.70
2023-04-15T19:53:41.951Z,0.60
2023-04-15T19:58:47.316Z,0.50
2023-04-15T20:03:54.076Z,0.35
2023-04-15T20:08:59.504Z,0.70
2023-04-15T20:14:03.441Z,0.70
2023-04-15T20:19:13.423Z,0.40
2023-04-15T20:24:17.299Z,0.50
2023-04-15T20:29:21.575Z,0.93
2023-04-15T20:34:25.568Z,1.33
2023-04-15T20:39:30.716Z,1.58
2023-04-15T20:44:35.751Z,1.45
2023-04-15T20:49:40.382Z,2.03
2023-04-15T20:54:45.001Z,2.00
2023-04-15T20:59:48.901Z,2.45
2023-04-15T21:04:52.389Z,2.28
2023-04-15T21:09:56.317Z,2.45
2023-04-15T21:15:00.530Z,3.95
2023-04-15T21:20:05.094Z,4.38
2023-04-15T21:25:09.948Z,3.55
2023-04-15T21:30:14.160Z,3.55
2023-04-15T21:35:18.530Z,3.15
2023-04-15T21:40:22.218Z,3.65
2023-04-15T21:45:26.317Z,2.88
2023-04-15T21:50:30.539Z,1.40
2023-04-15T21:55:34.016Z,1.17
2023-04-15T22:00:39.713Z,0.98
2023-04-15T22:05:46.830Z,0.95
2023-04-15T22:10:50.883Z,0.60
2023-04-15T22:15:54.665Z,0.77
2023-04-15T22:20:57.857Z,1.08
2023-04-15T22:26:01.269Z,0.65
2023-04-15T22:31:04.463Z,0.90
2023-04-15T22:36:08.024Z,0.93
2023-04-15T22:41:11.660Z,0.80
2023-04-15T22:46:15.376Z,0.80
2023-04-15T22:51:23.894Z,0.68
2023-04-15T22:56:27.478Z,1.92
2023-04-15T23:01:32.495Z,0.90
2023-04-15T23:06:36.114Z,1.50
2023-04-15T23:11:39.243Z,0.90
2023-04-15T23:16:43.567Z,1.13
2023-04-15T23:21:47.856Z,0.80
2023-04-15T23:26:53.392Z,1.20
2023-04-15T23:31:57.957Z,0.88
2023-04-15T23:37:01.582Z,1.10
2023-04-15T23:42:05.759Z,1.17
2023-04-15T23:47:09.558Z,1.23
2023-04-15T23:52:12.637Z,1.38
2023-04-15T23:57:16.753Z,0.73
